Time;durP1;ratioP1;P1;durP2;ratioP2;P2;SDS_P1;SDS_P2;PMS_P1;PMS_P2;Temp;Humidity;BMP_temperature;BMP_pressure;BME280_temperature;BME280_humidity;BME280_pressure;Samples;Min_cycle;Max_cycle;Signal;HPM_P1;HPM_P2
2021/09/07 00:01:43;;;;;;;15.67;10.30;;;;;;;14.05;84.11;96935.66;5055378;28;20056;-81
2021/09/07 00:04:08;;;;;;;16.80;10.93;;;;;;;14.07;85.18;96934.50;5057372;28;20047;-80
2021/09/07 00:06:34;;;;;;;14.37;9.27;;;;;;;14.19;84.68;96924.44;5069841;28;20033;-81
2021/09/07 00:08:59;;;;;;;14.00;10.27;;;;;;;14.06;85.33;96924.09;5053039;28;20021;-80
2021/09/07 00:11:27;;;;;;;14.90;10.60;;;;;;;13.94;85.58;96923.56;5069680;28;20031;-81
2021/09/07 00:13:56;;;;;;;12.90;9.67;;;;;;;13.99;85.49;96928.41;5069702;28;20025;-81
2021/09/07 00:16:23;;;;;;;14.23;10.63;;;;;;;14.04;84.96;96928.72;5072891;28;20641;-81
2021/09/07 00:18:49;;;;;;;14.07;10.07;;;;;;;13.99;85.32;96923.94;5072617;28;20074;-81
2021/09/07 00:21:15;;;;;;;12.03;9.13;;;;;;;13.95;85.49;96921.75;5067185;28;20032;-80
2021/09/07 00:23:41;;;;;;;15.80;10.27;;;;;;;13.93;85.94;96926.41;5040407;28;20092;-79
2021/09/07 00:26:07;;;;;;;12.73;9.30;;;;;;;13.88;86.17;96919.78;5053692;28;20612;-80
2021/09/07 00:28:32;;;;;;;12.90;9.90;;;;;;;13.85;86.26;96929.88;5048471;28;20173;-80
2021/09/07 00:30:58;;;;;;;12.77;9.20;;;;;;;13.77;85.73;96927.19;5055844;28;20037;-80
2021/09/07 00:33:24;;;;;;;14.17;9.40;;;;;;;13.77;86.00;96928.00;5045296;28;20473;-80
2021/09/07 00:35:50;;;;;;;14.07;10.67;;;;;;;13.71;86.02;96919.91;5054639;28;20028;-80
2021/09/07 00:38:15;;;;;;;14.93;9.40;;;;;;;13.61;86.25;96922.69;5073504;28;20077;-80
2021/09/07 00:40:41;;;;;;;15.43;9.47;;;;;;;13.58;86.27;96913.28;5072657;28;20036;-80
2021/09/07 00:43:07;;;;;;;13.83;9.47;;;;;;;13.56;85.98;96909.13;5055397;28;20383;-81
2021/09/07 00:45:32;;;;;;;15.43;10.27;;;;;;;13.53;85.98;96909.47;5073751;28;20115;-80
2021/09/07 00:47:58;;;;;;;10.93;8.87;;;;;;;13.48;85.95;96907.31;5071041;28;20028;-80
2021/09/07 00:50:24;;;;;;;13.40;9.47;;;;;;;13.45;85.81;96905.00;5077076;28;20541;-81
2021/09/07 00:52:50;;;;;;;14.67;9.83;;;;;;;13.36;85.85;96912.03;5049264;28;20029;-81
2021/09/07 00:55:17;;;;;;;12.80;8.97;;;;;;;13.41;84.60;96901.84;5073872;28;20033;-81
2021/09/07 00:57:45;;;;;;;12.73;9.53;;;;;;;13.41;84.01;96901.00;5053459;28;20040;-79
2021/09/07 01:00:11;;;;;;;13.90;10.17;;;;;;;13.35;84.26;96912.22;5066951;28;20418;-78
2021/09/07 01:02:38;;;;;;;13.03;9.17;;;;;;;13.30;84.53;96912.69;5055332;28;20085;-79
2021/09/07 01:05:06;;;;;;;12.27;9.40;;;;;;;13.30;85.25;96909.22;5072460;28;20036;-83
2021/09/07 01:07:33;;;;;;;12.87;9.53;;;;;;;13.24;85.56;96907.19;5055514;28;20040;-81
2021/09/07 01:10:06;;;;;;;14.87;10.10;;;;;;;13.24;85.44;96899.25;5060435;28;20028;-80
2021/09/07 01:12:33;;;;;;;16.47;10.47;;;;;;;13.15;86.04;96898.41;5052992;28;20044;-79
2021/09/07 01:15:00;;;;;;;14.90;10.30;;;;;;;13.11;86.48;96907.59;5051490;28;20021;-81
2021/09/07 01:17:27;;;;;;;14.27;9.83;;;;;;;13.15;86.78;96906.34;5080361;28;20036;-81
2021/09/07 01:19:55;;;;;;;13.77;10.20;;;;;;;13.17;86.74;96901.69;5074870;28;20016;-79
2021/09/07 01:22:22;;;;;;;15.13;10.63;;;;;;;13.13;86.79;96903.84;5084542;28;20032;-78
2021/09/07 01:24:49;;;;;;;13.47;9.97;;;;;;;13.16;87.13;96898.25;5074564;28;20123;-81
2021/09/07 01:27:17;;;;;;;15.37;10.63;;;;;;;13.12;86.98;96896.09;5055167;28;20659;-79
2021/09/07 01:29:43;;;;;;;14.97;10.33;;;;;;;13.10;86.84;96906.78;5045017;28;20032;-80
2021/09/07 01:32:11;;;;;;;15.20;10.57;;;;;;;13.14;86.37;96909.94;5055234;28;20024;-80
2021/09/07 01:34:37;;;;;;;13.33;9.50;;;;;;;13.16;86.40;96910.63;5052494;28;20577;-79
2021/09/07 01:37:03;;;;;;;16.47;11.17;;;;;;;13.17;86.50;96910.44;5083692;28;20185;-80
2021/09/07 01:39:29;;;;;;;18.73;9.93;;;;;;;13.23;85.88;96913.44;5058642;28;20559;-80
2021/09/07 01:41:55;;;;;;;15.80;11.00;;;;;;;13.24;86.82;96915.94;5053597;28;20059;-81
2021/09/07 01:44:22;;;;;;;15.90;10.90;;;;;;;13.20;86.55;96910.13;5075050;28;20024;-81
2021/09/07 01:46:48;;;;;;;16.57;11.57;;;;;;;13.05;87.21;96901.16;5053247;28;20039;-80
2021/09/07 01:49:15;;;;;;;14.33;11.23;;;;;;;13.00;87.43;96897.34;5058469;28;20036;-80
2021/09/07 01:51:42;;;;;;;17.03;11.50;;;;;;;12.87;87.71;96897.75;5076819;28;20637;-81
2021/09/07 01:54:09;;;;;;;14.13;10.07;;;;;;;12.80;88.16;96892.28;5058815;28;20032;-81
2021/09/07 01:56:36;;;;;;;13.63;10.80;;;;;;;12.83;88.13;96897.25;5078531;28;20191;-80
2021/09/07 01:59:02;;;;;;;15.30;10.77;;;;;;;12.85;87.81;96894.47;5070287;28;20029;-80
2021/09/07 02:01:29;;;;;;;16.53;10.50;;;;;;;12.92;87.07;96900.78;5070399;28;20032;-80
2021/09/07 02:03:55;;;;;;;13.23;9.73;;;;;;;12.89;87.50;96901.09;5072722;28;20381;-80
2021/09/07 02:06:23;;;;;;;13.60;10.47;;;;;;;12.84;87.53;96892.81;5054477;28;20040;-80
2021/09/07 02:08:50;;;;;;;13.90;10.13;;;;;;;12.76;88.43;96890.13;5067498;28;20028;-80
2021/09/07 02:11:16;;;;;;;14.27;9.00;;;;;;;12.84;87.23;96893.63;5070472;28;20029;-80
2021/09/07 02:13:43;;;;;;;12.47;9.60;;;;;;;12.83;86.55;96891.16;5069948;28;20052;-80
2021/09/07 02:16:09;;;;;;;19.57;10.13;;;;;;;12.80;87.09;96892.28;5065982;28;20028;-79
2021/09/07 02:18:37;;;;;;;16.50;9.27;;;;;;;12.80;86.89;96891.47;5072893;28;20094;-79
2021/09/07 02:21:04;;;;;;;13.77;10.03;;;;;;;12.73;87.14;96900.00;5056552;28;20063;-80
2021/09/07 02:23:30;;;;;;;14.27;8.90;;;;;;;12.75;86.94;96907.78;5052513;28;20131;-80
2021/09/07 02:25:56;;;;;;;12.47;8.73;;;;;;;12.82;86.66;96911.44;5072048;28;20116;-80
2021/09/07 02:28:23;;;;;;;12.13;9.10;;;;;;;12.71;86.67;96909.09;5056664;28;20083;-80
2021/09/07 02:30:52;;;;;;;11.83;9.07;;;;;;;12.66;87.55;96911.34;5079740;28;20101;-80
2021/09/07 02:33:18;;;;;;;13.37;9.07;;;;;;;12.63;88.16;96906.38;5074583;28;20397;-80
2021/09/07 02:35:45;;;;;;;14.73;9.87;;;;;;;12.64;88.64;96915.94;5055806;28;20095;-81
2021/09/07 02:38:11;;;;;;;14.43;9.97;;;;;;;12.66;88.85;96908.72;5062511;28;20032;-80
2021/09/07 02:40:38;;;;;;;14.07;10.43;;;;;;;12.49;89.88;96905.97;5073208;28;20041;-80
2021/09/07 02:43:04;;;;;;;16.10;10.97;;;;;;;12.30;91.86;96902.69;5060302;28;20033;-80
2021/09/07 02:45:29;;;;;;;15.90;10.97;;;;;;;12.25;92.28;96900.50;5055439;28;20024;-80
2021/09/07 02:47:56;;;;;;;14.07;10.37;;;;;;;12.27;92.24;96899.38;5054454;28;20020;-79
2021/09/07 02:50:22;;;;;;;17.60;10.30;;;;;;;12.27;92.33;96904.66;5081202;28;20025;-80
2021/09/07 02:52:50;;;;;;;14.37;10.87;;;;;;;12.26;92.68;96900.34;5074218;28;20020;-80
2021/09/07 02:55:15;;;;;;;17.00;11.23;;;;;;;12.16;93.58;96898.78;5077325;28;20037;-81
2021/09/07 02:57:41;;;;;;;16.87;11.67;;;;;;;12.16;93.82;96910.16;5061502;28;20030;-81
2021/09/07 03:00:08;;;;;;;17.43;10.97;;;;;;;12.20;93.65;96906.22;5060017;28;20071;-80
2021/09/07 03:02:34;;;;;;;14.47;11.23;;;;;;;12.22;93.24;96899.00;5073813;28;20039;-79
2021/09/07 03:05:02;;;;;;;15.80;11.67;;;;;;;12.11;93.39;96890.53;5072831;28;20390;-80
2021/09/07 03:07:28;;;;;;;15.00;11.33;;;;;;;12.00;94.35;96894.19;5074127;28;20024;-80
2021/09/07 03:09:54;;;;;;;17.00;11.77;;;;;;;11.89;94.97;96890.00;5078419;28;20060;-80
2021/09/07 03:12:20;;;;;;;17.43;11.73;;;;;;;11.84;95.67;96900.19;5051344;28;20466;-80
2021/09/07 03:14:46;;;;;;;15.43;10.77;;;;;;;11.88;95.33;96885.72;5080194;28;20024;-80
2021/09/07 03:17:12;;;;;;;14.97;11.77;;;;;;;11.83;96.07;96882.66;5057850;28;20472;-81
2021/09/07 03:19:40;;;;;;;15.53;11.00;;;;;;;11.78;96.40;96880.47;5071418;28;20044;-80
2021/09/07 03:22:06;;;;;;;18.73;10.93;;;;;;;11.73;97.15;96884.53;5075158;28;20027;-80
2021/09/07 03:24:32;;;;;;;18.80;11.97;;;;;;;11.82;96.06;96886.28;5076280;28;20421;-80
2021/09/07 03:26:57;;;;;;;13.87;10.17;;;;;;;11.89;94.86;96889.16;5077331;28;20042;-81
2021/09/07 03:29:23;;;;;;;16.40;10.83;;;;;;;11.91;94.62;96882.78;5075041;28;20039;-80
2021/09/07 03:31:49;;;;;;;15.53;10.13;;;;;;;11.89;94.87;96884.72;5071901;28;20513;-81
2021/09/07 03:34:15;;;;;;;15.20;10.37;;;;;;;11.88;95.10;96885.72;5064936;28;20066;-80
2021/09/07 03:36:41;;;;;;;17.23;10.80;;;;;;;11.88;95.06;96879.63;5072128;28;20023;-80
2021/09/07 03:39:07;;;;;;;14.27;9.73;;;;;;;11.82;94.97;96870.47;5072993;28;20508;-81
2021/09/07 03:41:33;;;;;;;14.50;10.90;;;;;;;11.83;95.38;96872.13;5064340;28;20021;-80
2021/09/07 03:43:59;;;;;;;15.97;10.70;;;;;;;11.79;95.71;96870.78;5075036;28;20478;-81
2021/09/07 03:46:25;;;;;;;13.87;10.03;;;;;;;11.74;96.18;96873.03;5074114;28;20089;-81
2021/09/07 03:48:52;;;;;;;13.97;10.27;;;;;;;11.83;96.18;96869.47;5054590;28;20051;-80
2021/09/07 03:51:19;;;;;;;14.43;10.60;;;;;;;11.88;95.35;96864.63;5064938;28;20026;-79
2021/09/07 03:53:46;;;;;;;13.37;9.67;;;;;;;11.92;95.08;96875.69;5080346;28;20056;-79
2021/09/07 03:56:15;;;;;;;19.00;10.53;;;;;;;11.91;95.43;96874.88;5077053;28;20027;-79
2021/09/07 03:58:44;;;;;;;16.40;10.77;;;;;;;11.90;95.87;96870.56;5079988;28;20031;-80
2021/09/07 04:01:10;;;;;;;15.30;11.43;;;;;;;11.67;98.07;96874.59;5057743;28;20013;-81
2021/09/07 04:03:36;;;;;;;16.53;12.50;;;;;;;11.54;99.25;96873.19;5082227;28;20032;-80
2021/09/07 04:06:02;;;;;;;16.37;12.20;;;;;;;11.47;99.85;96873.94;5081476;28;20035;-81
2021/09/07 04:08:27;;;;;;;15.73;11.50;;;;;;;11.52;100.00;96879.56;5069450;28;20024;-79
2021/09/07 04:10:53;;;;;;;17.67;11.40;;;;;;;11.60;99.01;96873.53;5090567;28;20135;-80
2021/09/07 04:13:19;;;;;;;15.83;12.67;;;;;;;11.55;99.86;96882.72;5081788;28;20063;-81
2021/09/07 04:15:45;;;;;;;18.13;12.03;;;;;;;11.45;100.00;96879.34;5080551;28;20036;-79
2021/09/07 04:18:11;;;;;;;17.13;11.80;;;;;;;11.27;100.00;96868.78;5067654;28;20111;-82
2021/09/07 04:20:37;;;;;;;16.17;11.47;;;;;;;11.26;100.00;96872.38;5092466;28;20024;-79
2021/09/07 04:23:03;;;;;;;15.10;10.97;;;;;;;11.31;100.00;96877.22;5064960;28;20702;-80
2021/09/07 04:25:28;;;;;;;19.17;11.47;;;;;;;11.36;99.46;96880.22;5088128;28;20478;-79
2021/09/07 04:27:54;;;;;;;12.27;9.63;;;;;;;11.46;97.38;96874.88;5085784;28;20032;-80
2021/09/07 04:30:21;;;;;;;14.97;10.37;;;;;;;11.54;96.23;96880.25;5087440;28;20433;-78
2021/09/07 04:32:47;;;;;;;17.00;12.73;;;;;;;11.59;96.38;96882.44;5089832;28;20105;-78
2021/09/07 04:35:13;;;;;;;15.80;13.17;;;;;;;11.63;96.26;96881.16;5064534;28;20092;-80
2021/09/07 04:37:39;;;;;;;14.90;11.20;;;;;;;11.49;97.55;96885.97;5063754;28;20091;-79
2021/09/07 04:40:06;;;;;;;19.50;10.40;;;;;;;11.39;97.55;96877.28;5082910;28;20043;-78
2021/09/07 04:42:32;;;;;;;18.73;12.60;;;;;;;11.34;98.29;96879.56;5064445;28;20036;-78
2021/09/07 04:44:58;;;;;;;18.40;11.77;;;;;;;11.33;97.88;96885.78;5077445;28;20175;-79
2021/09/07 04:47:24;;;;;;;15.27;10.50;;;;;;;11.38;98.17;96887.97;5065976;28;20481;-77
2021/09/07 04:49:50;;;;;;;16.07;10.17;;;;;;;11.18;98.38;96884.63;5079940;28;20324;-78
2021/09/07 04:52:16;;;;;;;14.27;10.77;;;;;;;11.24;99.07;96891.94;5091102;28;20098;-79
2021/09/07 04:54:42;;;;;;;25.47;11.03;;;;;;;11.20;98.29;96887.94;5055866;28;20055;-79
2021/09/07 04:57:07;;;;;;;14.83;9.83;;;;;;;11.22;98.60;96878.91;5066790;28;20036;-79
2021/09/07 04:59:33;;;;;;;18.03;10.43;;;;;;;11.16;99.53;96889.22;5061432;28;20052;-80
2021/09/07 05:01:59;;;;;;;15.77;11.20;;;;;;;11.21;99.08;96892.25;5083922;28;20029;-80
2021/09/07 05:04:24;;;;;;;15.83;9.90;;;;;;;11.40;97.87;96899.19;5060833;28;20062;-79
2021/09/07 05:06:50;;;;;;;15.07;11.43;;;;;;;11.48;97.80;96905.38;5063086;28;20039;-78
2021/09/07 05:09:16;;;;;;;17.17;11.27;;;;;;;11.28;98.65;96898.56;5085422;28;20074;-78
2021/09/07 05:11:41;;;;;;;17.03;11.40;;;;;;;11.13;100.00;96900.03;5082123;28;20032;-80
2021/09/07 05:14:07;;;;;;;14.93;10.60;;;;;;;11.14;99.57;96896.44;5061755;28;20123;-80
2021/09/07 05:16:33;;;;;;;15.60;11.30;;;;;;;11.25;99.66;96902.31;5077846;28;20039;-80
2021/09/07 05:18:58;;;;;;;19.73;11.60;;;;;;;11.30;99.35;96904.50;5082365;28;20490;-78
2021/09/07 05:21:24;;;;;;;14.60;10.70;;;;;;;11.36;99.31;96911.00;5080300;28;20090;-77
2021/09/07 05:23:50;;;;;;;16.27;11.10;;;;;;;11.43;98.49;96906.78;5071425;28;20656;-80
2021/09/07 05:26:15;;;;;;;16.37;11.80;;;;;;;11.37;98.87;96912.66;5063130;28;20101;-79
2021/09/07 05:28:41;;;;;;;14.53;10.37;;;;;;;11.31;99.08;96912.28;5090742;28;20398;-79
2021/09/07 05:31:07;;;;;;;15.33;11.17;;;;;;;11.28;98.80;96917.81;5078189;28;20016;-78
2021/09/07 05:33:32;;;;;;;18.87;11.23;;;;;;;11.21;99.55;96913.31;5066654;28;20092;-79
2021/09/07 05:35:58;;;;;;;14.83;10.27;;;;;;;11.26;99.62;96909.22;5065457;28;20516;-79
2021/09/07 05:38:24;;;;;;;14.73;9.77;;;;;;;11.36;98.38;96906.56;5081200;28;20016;-80
2021/09/07 05:40:51;;;;;;;16.40;10.00;;;;;;;11.45;98.26;96905.66;5092609;28;20038;-80
2021/09/07 05:43:17;;;;;;;14.53;10.77;;;;;;;11.43;98.36;96912.06;5083128;28;20024;-80
2021/09/07 05:45:42;;;;;;;15.13;10.60;;;;;;;11.52;97.91;96912.00;5076467;28;20020;-79
2021/09/07 05:48:08;;;;;;;14.53;10.70;;;;;;;11.54;98.00;96917.13;5075686;28;20486;-79
2021/09/07 05:50:34;;;;;;;14.67;10.90;;;;;;;11.60;97.52;96913.06;5077996;28;20033;-79
2021/09/07 05:53:00;;;;;;;14.13;10.87;;;;;;;11.55;97.10;96921.41;5061475;28;20040;-79
2021/09/07 05:55:26;;;;;;;16.60;10.20;;;;;;;11.75;96.56;96922.13;5081843;28;20036;-80
2021/09/07 05:57:53;;;;;;;16.33;11.00;;;;;;;11.80;96.65;96920.69;5081314;28;20039;-78
2021/09/07 06:00:30;;;;;;;15.63;10.30;;;;;;;11.73;96.94;96921.44;5086366;28;20095;-78
2021/09/07 06:02:58;;;;;;;14.60;10.70;;;;;;;11.80;96.19;96928.59;5088352;28;20032;-79
2021/09/07 06:05:24;;;;;;;16.97;11.47;;;;;;;12.01;95.90;96922.25;5090477;28;20012;-77
2021/09/07 06:08:04;;;;;;;16.70;10.97;;;;;;;12.15;94.82;96926.97;5082929;28;20088;-79
2021/09/07 06:10:38;;;;;;;14.90;10.53;;;;;;;12.32;93.32;96929.75;5078076;28;20413;-80
2021/09/07 06:13:09;;;;;;;17.97;11.13;;;;;;;12.23;93.76;96934.13;5068468;28;20008;-78
2021/09/07 06:15:53;;;;;;;14.17;10.43;;;;;;;12.42;92.93;96923.38;5077710;28;20455;-80
2021/09/07 06:18:19;;;;;;;12.33;9.43;;;;;;;12.64;91.67;96926.50;5078557;28;20033;-80
2021/09/07 06:20:45;;;;;;;13.13;9.97;;;;;;;12.75;90.53;96926.25;5060077;28;20051;-79
2021/09/07 06:23:11;;;;;;;16.23;11.03;;;;;;;12.61;91.56;96918.88;5072073;28;20040;-79
2021/09/07 06:25:36;;;;;;;15.27;10.97;;;;;;;12.52;91.87;96919.84;5069616;28;20150;-79
2021/09/07 06:28:03;;;;;;;16.53;10.70;;;;;;;12.73;91.18;96922.94;5058290;28;20096;-80
2021/09/07 06:30:29;;;;;;;15.47;10.50;;;;;;;12.98;90.28;96914.19;5078742;28;20550;-80
2021/09/07 06:32:54;;;;;;;14.37;10.00;;;;;;;12.98;89.73;96910.72;5071512;28;20032;-79
2021/09/07 06:35:20;;;;;;;15.50;10.20;;;;;;;13.33;88.36;96917.66;5076379;28;20032;-78
2021/09/07 06:37:46;;;;;;;13.03;9.47;;;;;;;14.11;84.64;96911.19;5079152;28;20088;-80
2021/09/07 06:40:12;;;;;;;19.27;10.60;;;;;;;14.44;82.20;96908.56;5060313;28;20027;-78
2021/09/07 06:42:38;;;;;;;15.70;9.37;;;;;;;14.60;81.25;96904.09;5053049;28;20037;-79
2021/09/07 06:45:04;;;;;;;16.57;9.50;;;;;;;14.84;79.34;96905.88;5056020;28;20159;-80
2021/09/07 06:47:30;;;;;;;14.97;10.80;;;;;;;14.97;79.94;96901.88;5073234;28;20091;-79
2021/09/07 06:49:56;;;;;;;14.00;9.17;;;;;;;14.69;81.83;96906.72;5055546;28;20024;-79
2021/09/07 06:52:23;;;;;;;15.07;9.87;;;;;;;15.34;79.71;96909.19;5051716;28;20442;-79
2021/09/07 06:54:49;;;;;;;16.93;10.57;;;;;;;15.53;79.69;96902.63;5059360;28;20036;-79
2021/09/07 06:57:14;;;;;;;21.07;11.27;;;;;;;15.87;80.80;96907.59;5057978;28;20552;-78
2021/09/07 06:59:40;;;;;;;17.73;11.83;;;;;;;16.66;77.47;96905.44;5062217;28;20033;-80
2021/09/07 07:02:06;;;;;;;14.57;10.90;;;;;;;17.19;75.29;96908.09;5059530;28;20037;-79
2021/09/07 07:04:31;;;;;;;13.73;9.67;;;;;;;17.98;70.65;96907.41;5073844;28;20039;-79
2021/09/07 07:06:57;;;;;;;12.63;8.77;;;;;;;18.71;67.17;96908.03;5056801;28;20031;-77
2021/09/07 07:09:23;;;;;;;14.18;9.38;;;;;;;19.61;62.82;96906.31;5082426;28;20533;-78
2021/09/07 07:11:48;;;;;;;13.65;9.52;;;;;;;19.90;60.02;96903.38;5084627;28;20031;-78
2021/09/07 07:14:19;;;;;;;15.98;10.30;;;;;;;19.33;61.42;96899.22;5071443;28;20033;-79
2021/09/07 07:16:44;;;;;;;11.48;8.80;;;;;;;20.01;59.59;96908.09;5079455;28;20037;-80
2021/09/07 07:19:10;;;;;;;16.92;9.48;;;;;;;19.94;60.57;96915.28;5074029;28;20029;-78
2021/09/07 07:21:35;;;;;;;13.93;10.57;;;;;;;19.65;61.70;96912.91;5067432;28;20039;-78
2021/09/07 07:24:01;;;;;;;15.52;9.43;;;;;;;20.95;57.29;96917.81;5059887;28;20037;-80
2021/09/07 07:26:27;;;;;;;14.50;9.52;;;;;;;20.11;59.50;96920.25;5076344;28;20032;-79
2021/09/07 07:28:53;;;;;;;13.85;9.25;;;;;;;21.74;54.48;96920.53;5074968;28;20024;-79
2021/09/07 07:31:19;;;;;;;14.93;8.75;;;;;;;22.13;55.28;96916.78;5075945;28;20025;-80
2021/09/07 07:33:44;;;;;;;12.52;9.13;;;;;;;23.12;51.42;96917.94;5083842;28;20560;-80
2021/09/07 07:36:10;;;;;;;13.48;8.80;;;;;;;22.78;51.57;96914.69;5081233;28;20036;-80
2021/09/07 07:38:36;;;;;;;13.05;8.75;;;;;;;22.49;53.66;96920.72;5072727;28;20233;-80
2021/09/07 07:41:02;;;;;;;14.63;10.90;;;;;;;23.35;51.93;96928.00;5082177;28;20126;-79
2021/09/07 07:43:30;;;;;;;13.73;9.93;;;;;;;22.75;52.23;96919.69;5081897;28;20025;-80
2021/09/07 07:45:55;;;;;;;14.63;10.13;;;;;;;23.97;50.25;96904.53;5069428;28;20032;-80
2021/09/07 07:48:22;;;;;;;12.95;9.27;;;;;;;23.87;50.66;96909.63;5084591;28;20032;-80
2021/09/07 07:50:47;;;;;;;13.48;9.23;;;;;;;22.21;53.52;96927.31;5070567;28;20028;-80
2021/09/07 07:53:13;;;;;;;11.63;8.27;;;;;;;24.10;49.06;96911.59;5065252;28;20651;-81
2021/09/07 07:55:39;;;;;;;11.10;8.40;;;;;;;25.13;47.20;96907.72;5084824;28;20059;-80
2021/09/07 07:58:04;;;;;;;11.35;8.82;;;;;;;24.02;49.76;96920.00;5083324;28;20501;-79
2021/09/07 08:00:30;;;;;;;10.77;8.55;;;;;;;24.18;49.95;96916.66;5079139;28;20067;-80
2021/09/07 08:02:56;;;;;;;12.23;7.97;;;;;;;24.93;47.46;96915.31;5078275;28;20017;-80
2021/09/07 08:05:21;;;;;;;12.43;8.80;;;;;;;24.55;49.23;96913.88;5084579;28;20102;-80
2021/09/07 08:07:47;;;;;;;11.07;8.20;;;;;;;23.67;50.63;96914.41;5063912;28;20024;-80
2021/09/07 08:10:13;;;;;;;10.98;8.63;;;;;;;24.44;49.00;96914.63;5064523;28;20151;-80
2021/09/07 08:12:39;;;;;;;12.43;9.75;;;;;;;24.70;49.27;96916.91;5084595;28;20350;-81
2021/09/07 08:15:05;;;;;;;12.25;8.57;;;;;;;25.69;46.56;96915.34;5085322;28;20036;-80
2021/09/07 08:17:31;;;;;;;12.65;9.05;;;;;;;25.08;47.82;96909.44;5077229;28;20039;-80
2021/09/07 08:19:56;;;;;;;11.73;7.88;;;;;;;25.78;45.72;96913.91;5069634;28;20029;-81
2021/09/07 08:22:25;;;;;;;11.82;8.55;;;;;;;25.61;46.71;96919.22;5061928;28;20063;-80
2021/09/07 08:24:51;;;;;;;12.18;8.00;;;;;;;25.88;45.83;96919.53;5077026;28;20028;-80
2021/09/07 08:27:21;;;;;;;16.10;8.15;;;;;;;23.76;50.53;96921.97;5080591;28;20098;-80
2021/09/07 08:29:54;;;;;;;18.85;9.23;;;;;;;23.76;52.29;96913.91;5063962;28;20075;-80
2021/09/07 08:32:20;;;;;;;12.38;8.45;;;;;;;23.66;51.95;96912.78;5076306;28;20028;-82
2021/09/07 08:34:46;;;;;;;11.77;8.80;;;;;;;25.55;46.43;96901.31;5079039;28;20784;-80
2021/09/07 08:37:11;;;;;;;11.00;7.45;;;;;;;27.17;43.80;96896.41;5079014;28;20040;-81
2021/09/07 08:39:37;;;;;;;11.35;7.75;;;;;;;27.37;42.59;96899.38;5077925;28;20017;-81
2021/09/07 08:42:09;;;;;;;12.02;8.18;;;;;;;27.40;40.48;96906.97;5081275;28;20032;-80
2021/09/07 08:44:46;;;;;;;10.90;7.38;;;;;;;28.25;39.52;96903.91;5057683;28;20036;-79
2021/09/07 08:47:17;;;;;;;10.40;7.60;;;;;;;28.69;38.97;96909.22;5064535;28;20134;-80
2021/09/07 08:49:45;;;;;;;11.30;7.75;;;;;;;28.35;41.83;96910.22;5079076;28;20123;-79
2021/09/07 08:52:14;;;;;;;13.73;7.78;;;;;;;27.99;41.32;96911.75;5064107;28;20073;-79
2021/09/07 08:54:42;;;;;;;12.15;8.27;;;;;;;27.94;37.81;96914.41;5058630;28;20040;-79
2021/09/07 08:57:08;;;;;;;9.82;7.28;;;;;;;28.09;38.64;96916.47;5074042;28;20066;-79
2021/09/07 08:59:34;;;;;;;12.15;6.88;;;;;;;27.40;41.70;96920.50;5081085;28;20119;-79
2021/09/07 09:02:12;;;;;;;9.85;7.43;;;;;;;28.23;39.65;96931.19;5061317;28;20024;-80
2021/09/07 09:04:39;;;;;;;9.32;7.20;;;;;;;27.64;39.05;96937.28;5082216;28;20036;-81
2021/09/07 09:07:04;;;;;;;9.32;6.68;;;;;;;28.33;36.21;96931.31;5056347;28;20552;-80
2021/09/07 09:09:38;;;;;;;11.48;6.90;;;;;;;29.15;33.17;96923.94;5081396;28;20028;-80
2021/09/07 09:12:06;;;;;;;7.72;6.05;;;;;;;29.13;33.89;96926.06;5063760;28;20188;-80
2021/09/07 09:14:39;;;;;;;9.68;7.28;;;;;;;26.65;37.24;96931.72;5086999;28;20036;-81
2021/09/07 09:17:17;;;;;;;9.60;6.80;;;;;;;28.48;34.36;96929.88;5078086;28;20047;-81
2021/09/07 09:20:03;;;;;;;8.20;6.95;;;;;;;28.84;33.37;96923.69;5076628;28;20036;-80
2021/09/07 09:22:54;;;;;;;11.95;7.07;;;;;;;29.01;33.43;96917.34;5076038;28;20461;-80
2021/09/07 09:25:22;;;;;;;9.30;7.32;;;;;;;29.77;31.70;96919.66;5069338;28;20594;-80
2021/09/07 09:28:08;;;;;;;10.57;7.00;;;;;;;28.51;32.60;96921.25;5085372;28;20020;-79
2021/09/07 09:30:49;;;;;;;9.45;6.50;;;;;;;29.03;32.16;96923.28;5079015;28;20032;-80
2021/09/07 09:33:24;;;;;;;8.85;6.55;;;;;;;28.65;32.96;96925.16;5076235;28;20037;-80
2021/09/07 09:35:54;;;;;;;13.00;6.63;;;;;;;29.67;31.78;96925.84;5083535;28;20055;-80
2021/09/07 09:38:23;;;;;;;9.23;7.30;;;;;;;28.35;33.37;96933.78;5057321;28;20028;-80
2021/09/07 09:40:57;;;;;;;10.10;7.47;;;;;;;28.66;33.30;96927.59;5078388;28;20048;-80
2021/09/07 09:43:38;;;;;;;10.93;7.85;;;;;;;28.36;35.02;96921.88;5076875;28;20035;-79
2021/09/07 09:46:22;;;;;;;9.38;6.32;;;;;;;28.77;34.89;96925.81;5059747;28;20039;-81
2021/09/07 09:48:49;;;;;;;7.93;6.40;;;;;;;30.22;31.79;96921.75;5081630;28;20496;-81
2021/09/07 09:51:17;;;;;;;10.30;7.30;;;;;;;30.25;31.91;96915.78;5080889;28;20075;-80
2021/09/07 09:53:49;;;;;;;8.90;6.95;;;;;;;28.25;33.77;96918.25;5057270;28;20421;-80
2021/09/07 09:56:15;;;;;;;12.15;10.07;;;;;;;30.20;32.24;96913.03;5083200;28;20044;-81
2021/09/07 09:58:41;;;;;;;12.73;9.93;;;;;;;30.26;32.18;96920.09;5069448;28;20025;-81
2021/09/07 10:01:08;;;;;;;9.63;7.22;;;;;;;29.82;32.67;96911.56;5091910;28;20028;-79
2021/09/07 10:03:37;;;;;;;9.20;6.97;;;;;;;30.56;30.49;96910.38;5072628;28;20019;-76
2021/09/07 10:06:03;;;;;;;8.02;6.63;;;;;;;31.48;29.59;96918.47;5090498;28;20043;-76
2021/09/07 10:08:29;;;;;;;8.65;7.20;;;;;;;31.13;31.47;96917.44;5068591;28;20025;-78
2021/09/07 10:11:00;;;;;;;10.07;7.47;;;;;;;31.43;29.33;96913.06;5075011;28;20575;-80
2021/09/07 10:13:29;;;;;;;11.35;6.93;;;;;;;30.28;30.67;96907.09;5079524;28;20047;-79
2021/09/07 10:16:30;;;;;;;10.00;7.10;;;;;;;29.77;31.46;96914.22;5075121;28;20051;-80
2021/09/07 10:26:39;;;;;;;8.90;7.05;;;;;;;30.53;29.83;96900.06;5085680;28;20025;-79
2021/09/07 10:29:08;;;;;;;10.95;7.15;;;;;;;30.33;29.74;96895.44;5055062;28;20029;-80
2021/09/07 10:31:54;;;;;;;12.05;6.93;;;;;;;31.02;30.01;96896.81;5081335;28;20039;-79
2021/09/07 10:34:26;;;;;;;10.38;6.65;;;;;;;32.09;29.10;96888.31;5068101;28;20036;-80
2021/09/07 10:37:02;;;;;;;8.55;6.30;;;;;;;32.34;28.52;96884.59;5075757;28;20089;-80
2021/09/07 10:39:36;;;;;;;9.70;6.40;;;;;;;32.80;26.15;96888.91;5059121;28;20039;-80
2021/09/07 10:42:05;;;;;;;9.55;6.45;;;;;;;31.13;28.61;96890.28;5077042;28;20036;-79
2021/09/07 10:44:38;;;;;;;8.38;6.63;;;;;;;31.42;29.38;96884.22;5074335;28;20055;-80
2021/09/07 10:47:05;;;;;;;10.50;6.97;;;;;;;32.90;27.58;96886.09;5074698;28;20036;-80
2021/09/07 10:49:41;;;;;;;8.70;6.47;;;;;;;32.42;27.57;96885.09;5078936;28;20028;-78
2021/09/07 10:52:10;;;;;;;8.43;6.93;;;;;;;29.10;32.00;96888.69;5066228;28;20025;-78
2021/09/07 10:54:49;;;;;;;8.52;6.90;;;;;;;30.46;30.66;96884.03;5081780;28;20028;-79
2021/09/07 11:00:09;;;;;;;10.13;6.85;;;;;;;30.24;31.29;96875.34;5072748;28;20037;-78
2021/09/07 11:02:42;;;;;;;8.23;6.25;;;;;;;31.22;30.14;96875.03;5085315;28;20033;-79
2021/09/07 11:05:09;;;;;;;9.25;6.80;;;;;;;30.93;29.82;96874.81;5069261;28;20052;-79
2021/09/07 11:07:36;;;;;;;9.50;7.43;;;;;;;31.33;29.13;96867.69;5083522;28;20037;-79
2021/09/07 11:10:03;;;;;;;9.65;7.18;;;;;;;32.36;28.48;96866.09;5058498;28;20036;-79
2021/09/07 11:12:33;;;;;;;8.18;6.25;;;;;;;32.01;28.30;96858.16;5079072;28;20104;-79
2021/09/07 11:15:01;;;;;;;17.00;15.20;;;;;;;30.98;30.53;96874.00;5072513;28;20028;-79
2021/09/07 11:17:27;;;;;;;10.40;7.38;;;;;;;31.44;30.68;96871.19;5069130;28;20039;-79
2021/09/07 11:19:59;;;;;;;9.10;6.80;;;;;;;30.27;30.88;96870.19;5064411;28;20610;-79
2021/09/07 11:22:29;;;;;;;9.02;6.75;;;;;;;30.05;30.23;96867.69;5075313;28;20043;-78
2021/09/07 11:25:24;;;;;;;8.75;6.80;;;;;;;29.71;30.83;96867.34;5070495;28;20113;-79
2021/09/07 11:27:58;;;;;;;7.50;6.22;;;;;;;29.43;31.77;96870.44;5050450;28;20071;-79
2021/09/07 11:30:39;;;;;;;9.25;6.07;;;;;;;29.45;31.79;96868.28;5066774;28;20040;-79
2021/09/07 11:33:15;;;;;;;9.52;6.45;;;;;;;29.32;32.95;96861.44;5075309;28;20122;-79
2021/09/07 11:35:48;;;;;;;8.65;6.82;;;;;;;27.84;34.82;96866.47;5080818;28;20123;-78